Ibiza, Spain
Current Conditions -  °F | °C
As of 12:00 AM on Thursday 27 Nov 2014 (Local Time) from LEIB Reporting Station
Scattered Clouds Scattered Clouds  
Wind Chill: 63°   Ceiling: Unl
Heat Index: 63°   Visibility: 6mi
Dew Point: 59°   Wind: 9mph
Humidity: 88%   Direction: 210°SSW
Pressure: 29.83"   Gusts: NA
Location:  38.91°N, 1.43°E
Report Text: LEIB 262300Z 21008KT 9999 FEW015 SCT025 17/15 Q1010 NOSIG
Loading
Personal Weather Stations






























Interactive Weather Map New forecast layout! Learn more

10-Day Weather Forecast

Advertisements
Track Severe Weather on mobile